Nepaug, Connecticut
Current Conditions -  °F | °C
As of 1:21 PM on Sunday 21 Dec 2014 (Local Time) from KBDL Reporting Station
Light Snow Light Snow  
Wind Chill: 28°   Ceiling: 900
Heat Index: 33°   Visibility: 3mi
Dew Point: 30°   Wind: 6mph
Humidity: 89%   Direction: 350°N
Pressure: 30.28"   Gusts: NA
Location:  41.8531°N, 73.0043°W
Report Text: KBDL 211821Z 35005KT 3SM -SN BR BKN009 BKN020 OVC035 01/M01 A3028 RMK AO2 P0000 T00061011 $
Loading
Personal Weather Stations






























Interactive Weather Map New forecast layout! Learn more

10-Day Weather Forecast

Advertisements
Track Severe Weather on mobile